sensor_id;sensor_type;location;lat;lon;timestamp;pressure;altitude;pressure_sealevel;temperature
24586;BMP280;12743;52.262;6.172;2023-04-03T00:00:44;102056.56;;;3.68
24586;BMP280;12743;52.262;6.172;2023-04-03T00:03:11;102058.78;;;3.60
24586;BMP280;12743;52.262;6.172;2023-04-03T00:05:37;102029.47;;;4.08
24586;BMP280;12743;52.262;6.172;2023-04-03T00:08:04;102073.41;;;3.49
24586;BMP280;12743;52.262;6.172;2023-04-03T00:10:34;102061.25;;;3.71
24586;BMP280;12743;52.262;6.172;2023-04-03T00:13:02;102034.47;;;3.88
24586;BMP280;12743;52.262;6.172;2023-04-03T00:15:29;102080.19;;;3.50
24586;BMP280;12743;52.262;6.172;2023-04-03T00:17:55;101999.59;;;3.45
24586;BMP280;12743;52.262;6.172;2023-04-03T00:20:22;102039.81;;;3.81
24586;BMP280;12743;52.262;6.172;2023-04-03T00:22:49;102070.91;;;3.71
24586;BMP280;12743;52.262;6.172;2023-04-03T00:25:15;102055.03;;;3.72
24586;BMP280;12743;52.262;6.172;2023-04-03T00:27:42;102055.59;;;3.58
24586;BMP280;12743;52.262;6.172;2023-04-03T00:30:11;102062.16;;;3.60
24586;BMP280;12743;52.262;6.172;2023-04-03T00:32:39;102059.22;;;3.73
24586;BMP280;12743;52.262;6.172;2023-04-03T00:35:06;102029.63;;;3.58
24586;BMP280;12743;52.262;6.172;2023-04-03T00:37:33;102081.94;;;3.45
24586;BMP280;12743;52.262;6.172;2023-04-03T00:39:59;102044.13;;;3.70
24586;BMP280;12743;52.262;6.172;2023-04-03T00:42:26;102028.03;;;3.73
24586;BMP280;12743;52.262;6.172;2023-04-03T00:47:23;102002.34;;;3.77
24586;BMP280;12743;52.262;6.172;2023-04-03T00:49:51;102022.75;;;3.30
24586;BMP280;12743;52.262;6.172;2023-04-03T00:52:22;102021.06;;;3.57
24586;BMP280;12743;52.262;6.172;2023-04-03T00:54:53;102023.28;;;3.49
24586;BMP280;12743;52.262;6.172;2023-04-03T00:57:21;102033.97;;;3.52
24586;BMP280;12743;52.262;6.172;2023-04-03T00:59:52;102021.25;;;3.72
24586;BMP280;12743;52.262;6.172;2023-04-03T01:02:20;102010.53;;;3.64
24586;BMP280;12743;52.262;6.172;2023-04-03T01:04:46;102017.03;;;3.66
24586;BMP280;12743;52.262;6.172;2023-04-03T01:07:20;101982.75;;;3.48
24586;BMP280;12743;52.262;6.172;2023-04-03T01:09:51;102009.25;;;3.66
24586;BMP280;12743;52.262;6.172;2023-04-03T01:12:21;102005.84;;;3.66
24586;BMP280;12743;52.262;6.172;2023-04-03T01:14:50;102013.44;;;3.67
24586;BMP280;12743;52.262;6.172;2023-04-03T01:17:38;101986.09;;;3.43
24586;BMP280;12743;52.262;6.172;2023-04-03T01:25:48;101989.47;;;3.65
24586;BMP280;12743;52.262;6.172;2023-04-03T01:31:01;102006.38;;;3.46
24586;BMP280;12743;52.262;6.172;2023-04-03T01:33:31;101999.06;;;3.43
24586;BMP280;12743;52.262;6.172;2023-04-03T01:35:58;101945.34;;;3.27
24586;BMP280;12743;52.262;6.172;2023-04-03T01:38:26;101994.75;;;3.32
24586;BMP280;12743;52.262;6.172;2023-04-03T01:40:53;101987.41;;;3.46
24586;BMP280;12743;52.262;6.172;2023-04-03T01:43:19;101993.34;;;3.41
24586;BMP280;12743;52.262;6.172;2023-04-03T01:45:46;101989.41;;;3.22
24586;BMP280;12743;52.262;6.172;2023-04-03T01:48:13;101985.78;;;3.40
24586;BMP280;12743;52.262;6.172;2023-04-03T01:50:39;101974.06;;;3.37
24586;BMP280;12743;52.262;6.172;2023-04-03T01:53:07;101963.38;;;3.55
24586;BMP280;12743;52.262;6.172;2023-04-03T01:55:33;101991.78;;;3.23
24586;BMP280;12743;52.262;6.172;2023-04-03T01:58:00;101933.72;;;2.91
24586;BMP280;12743;52.262;6.172;2023-04-03T02:00:26;101985.31;;;3.26
24586;BMP280;12743;52.262;6.172;2023-04-03T02:02:53;101982.06;;;3.36
24586;BMP280;12743;52.262;6.172;2023-04-03T02:05:20;101982.81;;;3.31
24586;BMP280;12743;52.262;6.172;2023-04-03T02:07:46;101986.31;;;3.25
24586;BMP280;12743;52.262;6.172;2023-04-03T02:10:13;101968.97;;;3.09
24586;BMP280;12743;52.262;6.172;2023-04-03T02:12:41;101979.81;;;3.22
24586;BMP280;12743;52.262;6.172;2023-04-03T02:15:07;101985.09;;;3.28
24586;BMP280;12743;52.262;6.172;2023-04-03T02:17:35;101995.72;;;3.09
24586;BMP280;12743;52.262;6.172;2023-04-03T02:20:02;101970.34;;;3.33
24586;BMP280;12743;52.262;6.172;2023-04-03T02:22:30;101980.31;;;3.19
24586;BMP280;12743;52.262;6.172;2023-04-03T02:24:56;101978.00;;;3.23
24586;BMP280;12743;52.262;6.172;2023-04-03T02:27:23;101992.81;;;3.06
24586;BMP280;12743;52.262;6.172;2023-04-03T02:29:49;101959.00;;;3.17
24586;BMP280;12743;52.262;6.172;2023-04-03T02:32:16;101962.38;;;3.18
24586;BMP280;12743;52.262;6.172;2023-04-03T02:34:43;101957.00;;;3.24
24586;BMP280;12743;52.262;6.172;2023-04-03T02:37:12;101943.28;;;3.07
24586;BMP280;12743;52.262;6.172;2023-04-03T02:39:39;101948.16;;;3.25
24586;BMP280;12743;52.262;6.172;2023-04-03T02:42:05;101978.88;;;3.12
24586;BMP280;12743;52.262;6.172;2023-04-03T02:44:33;101971.34;;;2.77
24586;BMP280;12743;52.262;6.172;2023-04-03T02:46:59;101993.44;;;2.80
24586;BMP280;12743;52.262;6.172;2023-04-03T02:49:26;101974.41;;;3.07
24586;BMP280;12743;52.262;6.172;2023-04-03T02:51:52;101972.34;;;3.09
24586;BMP280;12743;52.262;6.172;2023-04-03T02:54:19;101986.13;;;2.77
24586;BMP280;12743;52.262;6.172;2023-04-03T02:56:51;101971.03;;;3.07
24586;BMP280;12743;52.262;6.172;2023-04-03T02:59:18;101970.25;;;2.73
24586;BMP280;12743;52.262;6.172;2023-04-03T03:01:45;101971.25;;;3.05
24586;BMP280;12743;52.262;6.172;2023-04-03T03:04:12;101975.25;;;2.96
24586;BMP280;12743;52.262;6.172;2023-04-03T03:06:39;101990.78;;;2.75
24586;BMP280;12743;52.262;6.172;2023-04-03T03:09:08;101964.03;;;2.57
24586;BMP280;12743;52.262;6.172;2023-04-03T03:11:34;101991.69;;;2.68
24586;BMP280;12743;52.262;6.172;2023-04-03T03:14:01;101998.41;;;2.81
24586;BMP280;12743;52.262;6.172;2023-04-03T03:16:28;101994.75;;;2.65
24586;BMP280;12743;52.262;6.172;2023-04-03T03:18:55;101994.13;;;2.75
24586;BMP280;12743;52.262;6.172;2023-04-03T03:21:23;101982.44;;;2.89
24586;BMP280;12743;52.262;6.172;2023-04-03T03:23:50;102000.03;;;2.70
24586;BMP280;12743;52.262;6.172;2023-04-03T03:26:16;102001.69;;;2.77
24586;BMP280;12743;52.262;6.172;2023-04-03T03:28:43;101974.94;;;2.93
24586;BMP280;12743;52.262;6.172;2023-04-03T03:31:11;101968.25;;;2.63
24586;BMP280;12743;52.262;6.172;2023-04-03T03:33:39;101960.66;;;2.57
24586;BMP280;12743;52.262;6.172;2023-04-03T03:36:06;102001.41;;;2.90
24586;BMP280;12743;52.262;6.172;2023-04-03T03:38:35;102006.56;;;2.73
24586;BMP280;12743;52.262;6.172;2023-04-03T03:41:01;102004.34;;;2.82
24586;BMP280;12743;52.262;6.172;2023-04-03T03:43:31;102013.88;;;2.76
24586;BMP280;12743;52.262;6.172;2023-04-03T03:45:58;102005.84;;;2.61
24586;BMP280;12743;52.262;6.172;2023-04-03T03:48:26;102002.53;;;2.65
24586;BMP280;12743;52.262;6.172;2023-04-03T03:50:52;101979.16;;;2.49
24586;BMP280;12743;52.262;6.172;2023-04-03T03:53:22;102005.53;;;2.57
24586;BMP280;12743;52.262;6.172;2023-04-03T03:55:52;102010.94;;;2.56
24586;BMP280;12743;52.262;6.172;2023-04-03T03:58:21;102016.41;;;2.43
24586;BMP280;12743;52.262;6.172;2023-04-03T04:00:48;102011.66;;;2.51
24586;BMP280;12743;52.262;6.172;2023-04-03T04:03:15;102006.78;;;2.55
24586;BMP280;12743;52.262;6.172;2023-04-03T04:05:45;101968.84;;;2.37
24586;BMP280;12743;52.262;6.172;2023-04-03T04:08:12;102002.50;;;2.49
24586;BMP280;12743;52.262;6.172;2023-04-03T04:10:38;102004.09;;;2.66
24586;BMP280;12743;52.262;6.172;2023-04-03T04:13:06;102019.78;;;2.43
24586;BMP280;12743;52.262;6.172;2023-04-03T04:15:33;102018.13;;;2.37
24586;BMP280;12743;52.262;6.172;2023-04-03T04:18:01;102005.81;;;2.44
24586;BMP280;12743;52.262;6.172;2023-04-03T04:20:27;102010.69;;;2.29
24586;BMP280;12743;52.262;6.172;2023-04-03T04:22:54;102016.06;;;2.39
24586;BMP280;12743;52.262;6.172;2023-04-03T04:25:22;102003.69;;;2.41
24586;BMP280;12743;52.262;6.172;2023-04-03T04:27:48;101998.38;;;2.08
24586;BMP280;12743;52.262;6.172;2023-04-03T04:30:15;102016.06;;;2.39
24586;BMP280;12743;52.262;6.172;2023-04-03T04:32:45;101991.75;;;2.29
24586;BMP280;12743;52.262;6.172;2023-04-03T04:35:12;102008.03;;;2.24
24586;BMP280;12743;52.262;6.172;2023-04-03T04:37:45;102008.88;;;2.30
24586;BMP280;12743;52.262;6.172;2023-04-03T04:40:12;101996.94;;;2.00
24586;BMP280;12743;52.262;6.172;2023-04-03T04:42:39;102025.84;;;2.09
24586;BMP280;12743;52.262;6.172;2023-04-03T04:45:06;102023.91;;;2.28
24586;BMP280;12743;52.262;6.172;2023-04-03T04:47:35;101987.16;;;1.91
24586;BMP280;12743;52.262;6.172;2023-04-03T04:50:02;102021.53;;;2.26
24586;BMP280;12743;52.262;6.172;2023-04-03T04:52:30;102022.38;;;2.15
24586;BMP280;12743;52.262;6.172;2023-04-03T04:54:57;101988.94;;;2.02
24586;BMP280;12743;52.262;6.172;2023-04-03T04:57:24;102011.22;;;2.03
24586;BMP280;12743;52.262;6.172;2023-04-03T04:59:51;102016.72;;;2.18
24586;BMP280;12743;52.262;6.172;2023-04-03T05:02:17;101996.59;;;1.97
24586;BMP280;12743;52.262;6.172;2023-04-03T05:04:44;102033.25;;;1.66
24586;BMP280;12743;52.262;6.172;2023-04-03T05:07:17;102018.38;;;1.84
24586;BMP280;12743;52.262;6.172;2023-04-03T05:09:44;102015.00;;;1.60
24586;BMP280;12743;52.262;6.172;2023-04-03T05:12:12;101989.50;;;1.29
24586;BMP280;12743;52.262;6.172;2023-04-03T05:14:45;102017.50;;;1.67
24586;BMP280;12743;52.262;6.172;2023-04-03T05:17:12;102011.75;;;1.65
24586;BMP280;12743;52.262;6.172;2023-04-03T05:19:43;102034.94;;;1.72
24586;BMP280;12743;52.262;6.172;2023-04-03T05:22:11;102033.38;;;1.59
24586;BMP280;12743;52.262;6.172;2023-04-03T05:24:38;102039.31;;;1.83
24586;BMP280;12743;52.262;6.172;2023-04-03T05:27:06;102042.13;;;1.46
24586;BMP280;12743;52.262;6.172;2023-04-03T05:29:36;102045.06;;;1.73
24586;BMP280;12743;52.262;6.172;2023-04-03T05:32:04;102050.16;;;1.68
24586;BMP280;12743;52.262;6.172;2023-04-03T05:34:31;102059.13;;;1.54
24586;BMP280;12743;52.262;6.172;2023-04-03T05:36:58;102051.94;;;1.33
24586;BMP280;12743;52.262;6.172;2023-04-03T05:39:27;102052.03;;;1.49
24586;BMP280;12743;52.262;6.172;2023-04-03T05:41:53;102045.97;;;1.55
24586;BMP280;12743;52.262;6.172;2023-04-03T05:44:21;102029.97;;;1.70
24586;BMP280;12743;52.262;6.172;2023-04-03T05:46:49;102041.69;;;1.61
24586;BMP280;12743;52.262;6.172;2023-04-03T05:49:16;102053.88;;;1.72
24586;BMP280;12743;52.262;6.172;2023-04-03T05:51:42;102073.09;;;1.41
24586;BMP280;12743;52.262;6.172;2023-04-03T05:54:37;102048.22;;;1.52
24586;BMP280;12743;52.262;6.172;2023-04-03T05:57:15;102039.56;;;1.58
24586;BMP280;12743;52.262;6.172;2023-04-03T05:59:42;102064.66;;;1.57
24586;BMP280;12743;52.262;6.172;2023-04-03T06:02:12;102088.09;;;1.74
24586;BMP280;12743;52.262;6.172;2023-04-03T06:04:38;102071.97;;;2.07
24586;BMP280;12743;52.262;6.172;2023-04-03T06:07:06;102077.81;;;2.14
24586;BMP280;12743;52.262;6.172;2023-04-03T06:09:33;102096.50;;;2.16
24586;BMP280;12743;52.262;6.172;2023-04-03T06:12:00;102127.25;;;2.12
24586;BMP280;12743;52.262;6.172;2023-04-03T06:14:29;102115.44;;;1.93
24586;BMP280;12743;52.262;6.172;2023-04-03T06:16:55;102110.28;;;1.82
24586;BMP280;12743;52.262;6.172;2023-04-03T06:19:22;102141.81;;;2.25
24586;BMP280;12743;52.262;6.172;2023-04-03T06:21:53;102096.91;;;2.36
24586;BMP280;12743;52.262;6.172;2023-04-03T06:24:20;102166.59;;;2.09
24586;BMP280;12743;52.262;6.172;2023-04-03T06:26:49;102164.13;;;2.14
24586;BMP280;12743;52.262;6.172;2023-04-03T06:29:18;102175.84;;;2.17
24586;BMP280;12743;52.262;6.172;2023-04-03T06:31:45;102144.84;;;1.99
24586;BMP280;12743;52.262;6.172;2023-04-03T06:34:11;102173.53;;;2.32
24586;BMP280;12743;52.262;6.172;2023-04-03T06:36:39;102208.28;;;2.54
24586;BMP280;12743;52.262;6.172;2023-04-03T06:39:06;102197.47;;;2.86
24586;BMP280;12743;52.262;6.172;2023-04-03T06:41:33;102187.34;;;2.72
24586;BMP280;12743;52.262;6.172;2023-04-03T06:44:02;102256.41;;;2.74
24586;BMP280;12743;52.262;6.172;2023-04-03T06:46:29;102265.09;;;2.67
24586;BMP280;12743;52.262;6.172;2023-04-03T06:48:56;102252.16;;;2.96
24586;BMP280;12743;52.262;6.172;2023-04-03T06:51:28;102274.50;;;2.97
24586;BMP280;12743;52.262;6.172;2023-04-03T06:53:57;102291.22;;;2.89
24586;BMP280;12743;52.262;6.172;2023-04-03T06:56:25;102298.00;;;2.90
24586;BMP280;12743;52.262;6.172;2023-04-03T06:58:53;102307.03;;;2.88
24586;BMP280;12743;52.262;6.172;2023-04-03T07:01:28;102301.69;;;3.06
24586;BMP280;12743;52.262;6.172;2023-04-03T07:03:56;102305.63;;;3.08
24586;BMP280;12743;52.262;6.172;2023-04-03T07:06:23;102361.94;;;3.19
24586;BMP280;12743;52.262;6.172;2023-04-03T07:08:53;102362.56;;;3.38
24586;BMP280;12743;52.262;6.172;2023-04-03T07:11:20;102369.47;;;3.44
24586;BMP280;12743;52.262;6.172;2023-04-03T07:13:47;102367.88;;;3.43
24586;BMP280;12743;52.262;6.172;2023-04-03T07:16:13;102363.59;;;3.25
24586;BMP280;12743;52.262;6.172;2023-04-03T07:18:40;102437.63;;;3.51
24586;BMP280;12743;52.262;6.172;2023-04-03T07:21:07;102446.25;;;3.40
24586;BMP280;12743;52.262;6.172;2023-04-03T07:23:34;102450.19;;;3.54
24586;BMP280;12743;52.262;6.172;2023-04-03T07:26:01;102509.69;;;3.67
24586;BMP280;12743;52.262;6.172;2023-04-03T07:28:28;102470.38;;;3.52
24586;BMP280;12743;52.262;6.172;2023-04-03T07:31:02;102509.97;;;3.94
24586;BMP280;12743;52.262;6.172;2023-04-03T07:33:29;102555.41;;;3.92
24586;BMP280;12743;52.262;6.172;2023-04-03T07:35:56;102560.50;;;3.87
24586;BMP280;12743;52.262;6.172;2023-04-03T07:38:23;102565.78;;;4.03
24586;BMP280;12743;52.262;6.172;2023-04-03T07:40:50;102571.69;;;3.87
24586;BMP280;12743;52.262;6.172;2023-04-03T07:43:18;102589.97;;;4.04
24586;BMP280;12743;52.262;6.172;2023-04-03T07:45:46;102636.47;;;4.40
24586;BMP280;12743;52.262;6.172;2023-04-03T07:48:13;102613.28;;;4.50
24586;BMP280;12743;52.262;6.172;2023-04-03T07:50:40;102647.69;;;4.40
24586;BMP280;12743;52.262;6.172;2023-04-03T07:53:07;102644.63;;;4.44
24586;BMP280;12743;52.262;6.172;2023-04-03T07:55:34;102691.00;;;4.75
24586;BMP280;12743;52.262;6.172;2023-04-03T07:58:03;102658.69;;;4.59
24586;BMP280;12743;52.262;6.172;2023-04-03T08:00:31;102713.34;;;4.59
24586;BMP280;12743;52.262;6.172;2023-04-03T08:02:57;102712.38;;;4.88
24586;BMP280;12743;52.262;6.172;2023-04-03T08:05:24;102706.03;;;4.84
24586;BMP280;12743;52.262;6.172;2023-04-03T08:07:51;102708.75;;;4.89
24586;BMP280;12743;52.262;6.172;2023-04-03T08:10:18;102735.19;;;4.98
24586;BMP280;12743;52.262;6.172;2023-04-03T08:12:48;102772.78;;;4.90
24586;BMP280;12743;52.262;6.172;2023-04-03T08:15:15;102764.34;;;5.23
24586;BMP280;12743;52.262;6.172;2023-04-03T08:17:42;102734.31;;;5.21
24586;BMP280;12743;52.262;6.172;2023-04-03T08:20:09;102779.13;;;5.51
24586;BMP280;12743;52.262;6.172;2023-04-03T08:22:36;102790.13;;;5.25
24586;BMP280;12743;52.262;6.172;2023-04-03T08:25:03;102808.81;;;5.50
24586;BMP280;12743;52.262;6.172;2023-04-03T08:27:29;102807.47;;;5.47
24586;BMP280;12743;52.262;6.172;2023-04-03T08:29:56;102796.91;;;5.71
24586;BMP280;12743;52.262;6.172;2023-04-03T08:32:23;102771.88;;;5.36
24586;BMP280;12743;52.262;6.172;2023-04-03T08:34:50;102783.34;;;5.69
24586;BMP280;12743;52.262;6.172;2023-04-03T08:37:17;102835.25;;;6.03
24586;BMP280;12743;52.262;6.172;2023-04-03T08:39:44;102846.72;;;6.02
24586;BMP280;12743;52.262;6.172;2023-04-03T08:42:19;102838.97;;;5.91
24586;BMP280;12743;52.262;6.172;2023-04-03T08:44:59;102843.50;;;6.12
24586;BMP280;12743;52.262;6.172;2023-04-03T08:50:03;102852.34;;;6.11
24586;BMP280;12743;52.262;6.172;2023-04-03T08:52:46;102836.50;;;6.34
24586;BMP280;12743;52.262;6.172;2023-04-03T08:55:31;102869.75;;;6.39
24586;BMP280;12743;52.262;6.172;2023-04-03T08:58:28;102872.69;;;6.64
24586;BMP280;12743;52.262;6.172;2023-04-03T09:01:05;102869.75;;;6.39
24586;BMP280;12743;52.262;6.172;2023-04-03T09:03:40;102873.13;;;6.77
24586;BMP280;12743;52.262;6.172;2023-04-03T09:06:13;102875.13;;;6.15
24586;BMP280;12743;52.262;6.172;2023-04-03T09:12:03;102861.97;;;5.94
24586;BMP280;12743;52.262;6.172;2023-04-03T09:14:57;102873.69;;;6.25
24586;BMP280;12743;52.262;6.172;2023-04-03T09:17:38;102879.53;;;6.15
24586;BMP280;12743;52.262;6.172;2023-04-03T09:23:13;102866.00;;;6.51
24586;BMP280;12743;52.262;6.172;2023-04-03T09:25:41;102822.34;;;6.30
24586;BMP280;12743;52.262;6.172;2023-04-03T09:28:08;102875.97;;;6.76
24586;BMP280;12743;52.262;6.172;2023-04-03T09:30:37;102871.84;;;6.80
24586;BMP280;12743;52.262;6.172;2023-04-03T09:33:04;102877.59;;;6.60
24586;BMP280;12743;52.262;6.172;2023-04-03T09:35:35;102867.25;;;6.87
24586;BMP280;12743;52.262;6.172;2023-04-03T09:38:21;102875.44;;;6.36
24586;BMP280;12743;52.262;6.172;2023-04-03T09:43:31;102864.91;;;7.12
24586;BMP280;12743;52.262;6.172;2023-04-03T09:46:36;102862.06;;;7.40
24586;BMP280;12743;52.262;6.172;2023-04-03T09:49:04;102837.47;;;6.88
24586;BMP280;12743;52.262;6.172;2023-04-03T09:51:35;102865.81;;;7.23
24586;BMP280;12743;52.262;6.172;2023-04-03T09:54:30;102859.88;;;7.27
24586;BMP280;12743;52.262;6.172;2023-04-03T09:57:05;102845.91;;;6.95
24586;BMP280;12743;52.262;6.172;2023-04-03T09:59:32;102872.44;;;7.30
24586;BMP280;12743;52.262;6.172;2023-04-03T10:02:03;102856.47;;;7.27
24586;BMP280;12743;52.262;6.172;2023-04-03T10:04:38;102857.22;;;7.81
24586;BMP280;12743;52.262;6.172;2023-04-03T10:07:27;102850.22;;;7.33
24586;BMP280;12743;52.262;6.172;2023-04-03T10:09:59;102845.66;;;7.77
24586;BMP280;12743;52.262;6.172;2023-04-03T10:12:26;102857.06;;;7.66
24586;BMP280;12743;52.262;6.172;2023-04-03T10:17:51;102836.50;;;8.11
24586;BMP280;12743;52.262;6.172;2023-04-03T10:28:21;102841.91;;;7.94
24586;BMP280;12743;52.262;6.172;2023-04-03T10:42:23;102836.59;;;8.26
24586;BMP280;12743;52.262;6.172;2023-04-03T10:45:21;102831.06;;;7.86
24586;BMP280;12743;52.262;6.172;2023-04-03T10:48:11;102828.94;;;8.66
24586;BMP280;12743;52.262;6.172;2023-04-03T10:51:04;102809.50;;;8.67
24586;BMP280;12743;52.262;6.172;2023-04-03T10:53:45;102826.66;;;8.38
24586;BMP280;12743;52.262;6.172;2023-04-03T10:56:31;102824.63;;;8.45
24586;BMP280;12743;52.262;6.172;2023-04-03T10:59:26;102804.47;;;8.51
24586;BMP280;12743;52.262;6.172;2023-04-03T11:01:58;102806.69;;;8.84
24586;BMP280;12743;52.262;6.172;2023-04-03T11:04:28;102814.06;;;9.02
24586;BMP280;12743;52.262;6.172;2023-04-03T11:07:01;102792.50;;;8.70
24586;BMP280;12743;52.262;6.172;2023-04-03T11:09:32;102793.59;;;8.94
24586;BMP280;12743;52.262;6.172;2023-04-03T11:12:17;102792.34;;;9.32
24586;BMP280;12743;52.262;6.172;2023-04-03T11:14:46;102798.34;;;9.43
24586;BMP280;12743;52.262;6.172;2023-04-03T11:22:41;102798.06;;;8.84
24586;BMP280;12743;52.262;6.172;2023-04-03T11:27:44;102783.06;;;8.74
24586;BMP280;12743;52.262;6.172;2023-04-03T11:30:54;102799.59;;;8.80
24586;BMP280;12743;52.262;6.172;2023-04-03T11:33:47;102795.72;;;9.02
24586;BMP280;12743;52.262;6.172;2023-04-03T11:38:57;102765.06;;;9.33
24586;BMP280;12743;52.262;6.172;2023-04-03T11:41:28;102775.81;;;9.36
24586;BMP280;12743;52.262;6.172;2023-04-03T11:44:00;102766.34;;;8.95
24586;BMP280;12743;52.262;6.172;2023-04-03T11:46:49;102756.94;;;9.39
24586;BMP280;12743;52.262;6.172;2023-04-03T11:58:02;102755.09;;;9.10
24586;BMP280;12743;52.262;6.172;2023-04-03T12:16:07;102752.09;;;9.92
24586;BMP280;12743;52.262;6.172;2023-04-03T12:21:17;102756.06;;;10.38
24586;BMP280;12743;52.262;6.172;2023-04-03T12:26:41;102747.19;;;9.65
24586;BMP280;12743;52.262;6.172;2023-04-03T12:31:50;102728.13;;;10.08
24586;BMP280;12743;52.262;6.172;2023-04-03T12:37:03;102709.00;;;10.47
24586;BMP280;12743;52.262;6.172;2023-04-03T12:39:54;102704.31;;;10.39
24586;BMP280;12743;52.262;6.172;2023-04-03T12:45:21;102723.41;;;10.54
24586;BMP280;12743;52.262;6.172;2023-04-03T12:47:51;102713.81;;;10.35
24586;BMP280;12743;52.262;6.172;2023-04-03T12:50:30;102714.88;;;10.29
24586;BMP280;12743;52.262;6.172;2023-04-03T12:53:10;102720.84;;;11.12
24586;BMP280;12743;52.262;6.172;2023-04-03T12:55:37;102713.34;;;10.66
24586;BMP280;12743;52.262;6.172;2023-04-03T12:58:22;102705.94;;;10.30
24586;BMP280;12743;52.262;6.172;2023-04-03T13:01:11;102701.19;;;10.37
24586;BMP280;12743;52.262;6.172;2023-04-03T13:03:41;102702.09;;;10.56
24586;BMP280;12743;52.262;6.172;2023-04-03T13:06:22;102691.00;;;10.64
24586;BMP280;12743;52.262;6.172;2023-04-03T13:08:54;102688.25;;;10.79
24586;BMP280;12743;52.262;6.172;2023-04-03T13:11:24;102643.69;;;10.35
24586;BMP280;12743;52.262;6.172;2023-04-03T13:14:05;102676.22;;;10.39
24586;BMP280;12743;52.262;6.172;2023-04-03T13:16:40;102667.91;;;10.22
24586;BMP280;12743;52.262;6.172;2023-04-03T13:19:16;102679.34;;;10.02
24586;BMP280;12743;52.262;6.172;2023-04-03T13:21:43;102675.22;;;10.35
24586;BMP280;12743;52.262;6.172;2023-04-03T13:24:11;102671.50;;;10.75
24586;BMP280;12743;52.262;6.172;2023-04-03T13:26:41;102669.66;;;10.37
24586;BMP280;12743;52.262;6.172;2023-04-03T13:29:24;102675.47;;;10.34
24586;BMP280;12743;52.262;6.172;2023-04-03T13:31:57;102665.00;;;10.24
24586;BMP280;12743;52.262;6.172;2023-04-03T13:34:34;102664.53;;;10.17
24586;BMP280;12743;52.262;6.172;2023-04-03T13:37:02;102667.84;;;9.78
24586;BMP280;12743;52.262;6.172;2023-04-03T13:39:36;102658.94;;;9.84
24586;BMP280;12743;52.262;6.172;2023-04-03T13:42:33;102666.84;;;9.74
24586;BMP280;12743;52.262;6.172;2023-04-03T13:45:29;102663.56;;;9.97
24586;BMP280;12743;52.262;6.172;2023-04-03T13:48:09;102657.78;;;10.00
24586;BMP280;12743;52.262;6.172;2023-04-03T13:51:00;102669.56;;;9.49
24586;BMP280;12743;52.262;6.172;2023-04-03T13:53:29;102675.31;;;9.56
24586;BMP280;12743;52.262;6.172;2023-04-03T13:58:31;102672.91;;;9.65
24586;BMP280;12743;52.262;6.172;2023-04-03T14:01:17;102677.97;;;9.41
24586;BMP280;12743;52.262;6.172;2023-04-03T14:03:56;102670.59;;;9.53
24586;BMP280;12743;52.262;6.172;2023-04-03T14:06:23;102668.72;;;9.54
24586;BMP280;12743;52.262;6.172;2023-04-03T14:08:50;102673.09;;;9.83
24586;BMP280;12743;52.262;6.172;2023-04-03T14:11:26;102655.97;;;9.32
24586;BMP280;12743;52.262;6.172;2023-04-03T14:13:57;102623.94;;;9.99
24586;BMP280;12743;52.262;6.172;2023-04-03T14:16:28;102659.31;;;10.06
24586;BMP280;12743;52.262;6.172;2023-04-03T14:18:56;102643.47;;;10.27
24586;BMP280;12743;52.262;6.172;2023-04-03T14:21:23;102645.84;;;10.28
24586;BMP280;12743;52.262;6.172;2023-04-03T14:23:50;102656.03;;;10.97
24586;BMP280;12743;52.262;6.172;2023-04-03T14:26:20;102661.69;;;11.33
24586;BMP280;12743;52.262;6.172;2023-04-03T14:28:49;102651.59;;;10.93
24586;BMP280;12743;52.262;6.172;2023-04-03T14:31:17;102654.13;;;11.74
24586;BMP280;12743;52.262;6.172;2023-04-03T14:33:44;102655.88;;;11.12
24586;BMP280;12743;52.262;6.172;2023-04-03T14:38:40;102647.47;;;11.58
24586;BMP280;12743;52.262;6.172;2023-04-03T14:41:07;102641.78;;;12.25
24586;BMP280;12743;52.262;6.172;2023-04-03T14:43:43;102649.16;;;13.28
24586;BMP280;12743;52.262;6.172;2023-04-03T14:46:34;102653.53;;;14.26
24586;BMP280;12743;52.262;6.172;2023-04-03T14:49:25;102645.22;;;12.07
24586;BMP280;12743;52.262;6.172;2023-04-03T14:51:52;102637.06;;;11.47
24586;BMP280;12743;52.262;6.172;2023-04-03T14:54:21;102644.97;;;12.41
24586;BMP280;12743;52.262;6.172;2023-04-03T14:56:52;102605.94;;;12.56
24586;BMP280;12743;52.262;6.172;2023-04-03T14:59:18;102640.63;;;11.57
24586;BMP280;12743;52.262;6.172;2023-04-03T15:01:47;102644.16;;;11.28
24586;BMP280;12743;52.262;6.172;2023-04-03T15:04:17;102639.81;;;11.14
24586;BMP280;12743;52.262;6.172;2023-04-03T15:06:45;102623.16;;;11.23
24586;BMP280;12743;52.262;6.172;2023-04-03T15:11:46;102595.03;;;10.38
24586;BMP280;12743;52.262;6.172;2023-04-03T15:14:12;102615.97;;;9.60
24586;BMP280;12743;52.262;6.172;2023-04-03T15:16:44;102624.59;;;9.71
24586;BMP280;12743;52.262;6.172;2023-04-03T15:19:12;102611.56;;;10.10
24586;BMP280;12743;52.262;6.172;2023-04-03T15:21:39;102624.19;;;9.97
24586;BMP280;12743;52.262;6.172;2023-04-03T15:24:05;102617.78;;;9.70
24586;BMP280;12743;52.262;6.172;2023-04-03T15:26:32;102609.78;;;9.31
24586;BMP280;12743;52.262;6.172;2023-04-03T15:28:59;102629.78;;;9.12
24586;BMP280;12743;52.262;6.172;2023-04-03T15:31:25;102619.69;;;9.59
24586;BMP280;12743;52.262;6.172;2023-04-03T15:33:52;102626.78;;;9.49
24586;BMP280;12743;52.262;6.172;2023-04-03T15:36:18;102621.31;;;9.35
24586;BMP280;12743;52.262;6.172;2023-04-03T15:38:59;102619.03;;;9.23
24586;BMP280;12743;52.262;6.172;2023-04-03T15:41:26;102601.50;;;8.94
24586;BMP280;12743;52.262;6.172;2023-04-03T15:43:53;102624.53;;;9.12
24586;BMP280;12743;52.262;6.172;2023-04-03T15:46:19;102619.03;;;9.13
24586;BMP280;12743;52.262;6.172;2023-04-03T15:48:46;102588.66;;;8.87
24586;BMP280;12743;52.262;6.172;2023-04-03T15:51:13;102615.63;;;8.67
24586;BMP280;12743;52.262;6.172;2023-04-03T15:53:39;102586.56;;;8.49
24586;BMP280;12743;52.262;6.172;2023-04-03T15:56:06;102615.38;;;8.74
24586;BMP280;12743;52.262;6.172;2023-04-03T15:58:34;102600.44;;;8.74
24586;BMP280;12743;52.262;6.172;2023-04-03T16:01:01;102588.69;;;8.37
24586;BMP280;12743;52.262;6.172;2023-04-03T16:03:28;102616.16;;;8.64
24586;BMP280;12743;52.262;6.172;2023-04-03T16:05:55;102617.25;;;8.73